Tiempo atmosférico en la estación meteorológica de Coria, Cáceres (313 m.)



Fecha
DESCASC
Temp. máxima en grados centígrados (hora)
DESCASC
Temp. mínima en grados centígrados (hora)
DESCASC
Temp. media en grados centígrados
DESCASC
Racha de viento máxima en m/sg (hora)
DESCASC
Velocidad máxima media en intervalos de 10 minutos(hora)
DESCASC
Precipitaciones diarias en mm
DESCASC
Precipitaciones de 00:00 a 06:00 en mm
DESCASC
Precipitaciones de 06:00 a 12:00 en mm
DESCASC
Precipitaciones de 12:00 a 18:00 en mm
DESCASC
Precipitaciones de 18:00 a 24:00 en mm
DESCASC
20-09-2018 34.9 (18:30) 17 (08:40) 26 7.78 (21:10) 4.44 (12:10) 0 0 0 0 0
19-09-2018 34.1 (16:40) 17.5 (08:20) 25.8 7.5 (13:10) 4.17 (17:30) 0 0 0 0 0
18-09-2018 32.9 (18:10) 20.4 (08:10) 26.7 8.33 (18:10) 4.72 (18:10) 0 0 0 0 0
17-09-2018 34.3 (18:10) 18.4 (08:50) 26.3 9.44 (11:00) 6.11 (11:20) 0 0 0 0 0
16-09-2018 33.8 (16:40) 20.7 (00:00) 27.3 8.61 (10:00) 4.44 (10:00) 0 0 0 0 0
15-09-2018 34.4 (18:20) 18.1 (00:00) 26.3 11.67 (00:20) 5.28 (00:10) 0 0 0 0 0
14-09-2018 36.2 (17:50) 19.4 (00:00) 27.8 11.94 (23:40) 5.83 (23:59) 0 0 0 0 0
13-09-2018 35.9 (17:20) 19.7 (00:00) 27.8 6.94 (23:30) 3.89 (23:10) 0 0 0 0 0
12-09-2018 34.5 (18:00) 21.3 (00:00) 27.9 8.89 (07:50) 5.56 (10:20) 0 0 0 0 0
11-09-2018 31.9 (16:50) 20.9 (00:00) 26.4 13.61 (11:30) 7.78 (12:20) 0 0 0 0 0
10-09-2018 32 (17:40) 16.3 (00:00) 24.1 7.22 (13:20) 4.17 (13:20) 0 0 0 0 0
09-09-2018 30.5 (17:40) 15.7 (00:00) 23.1 8.33 (12:30) 5 (12:30) 0 0 0 0 0
08-09-2018 28.9 (16:00) 16.8 (00:00) 22.8 14.72 (20:20) 8.33 (20:50) 16.8 1 8 0 7.8
07-09-2018 32.1 (15:40) 15.9 (00:00) 24 9.72 (11:00) 5.28 (11:20) 0 0 0 0 0
06-09-2018 31.1 (17:50) 15.4 (00:00) 23.3 7.5 (18:00) 3.61 (18:10) 0 0 0 0 0
05-09-2018 27.8 (18:30) 18 (00:00) 22.9 6.39 (19:30) 4.17 (19:30) 0 0 0 0 0
04-09-2018 30.5 (17:00) 17.3 (00:00) 23.9 7.78 (16:10) 4.17 (20:40) 0 0 0 0 0
03-09-2018 31.1 (18:20) 21.3 (00:00) 26.2 7.22 (16:50) 3.89 (18:40) 0 0 0 0 0
02-09-2018 38 (17:50) 22.5 (00:00) 30.3 7.78 (22:30) 3.33 (15:00) 0 0 0 0 0
01-09-2018 37.8 (17:50) 22.6 (00:00) 30.2 10 (12:10) 6.39 (13:40) 0 0 0 0 0
31-08-2018 37.9 (18:40) 20.3 (00:00) 29.1 8.89 (23:50) 5.28 (11:40) 0 0 0 0 0
30-08-2018 36.2 (19:10) 20.9 (00:00) 28.6 8.06 (12:40) 5 (12:40) 0 0 0 0 0
29-08-2018 34.2 (18:30) 16.8 (00:00) 25.5 7.5 (07:40) 5.28 (07:40) 0 0 0 0 0
28-08-2018 34.2 (18:20) 21.2 (00:00) 27.7 10.83 (03:00) 6.11 (20:10) 0 0 0 0 0
27-08-2018 36.6 (18:40) 18.1 (00:00) 27.3 10 (12:30) 5.56 (12:40) 0 0 0 0 0
26-08-2018 36.8 (18:40) 18 (00:00) 27.4 8.61 (11:10) 4.72 (11:40) 0 0 0 0 0
25-08-2018 34.4 (16:40) 19.4 (00:00) 26.9 8.61 (13:30) 4.44 (17:50) 0 0 0 0 0
24-08-2018 36.9 (16:40) 21.8 (00:00) 29.4 9.72 (16:00) 5.28 (19:20) 0 0 0 0 0
23-08-2018 37.3 (16:30) 19.6 (00:00) 28.4 9.44 (23:40) 4.44 (23:30) 0 0 0 0 0

Gráficas

Temp. máximas Temp. mínimas Temp. medias Precipitaciones Rachas de viento máximas Velocidades máximas media en intervalos de 10 minutos

Datos horarios

Fecha y hora oficial Temperatura (ºC) Velocidad del viento (km/h) Dirección del viento Racha (km/h) Dirección de racha Precipitación (mm) Presión (hPa) Tendencia (hPa) Humedad (%)
2018-09-21 23:00:00 26.6 14 Norte 28 Norte 0 983 1.6 22
2018-09-21 22:00:00 27.2 13 Norte 24 Norte 0 982.6 1.3 24
2018-09-21 21:00:00 28.6 8 Norte 18 Norte 0 981.9 0.7 24
2018-09-21 20:00:00 31.7 5 Este 9 Este 0 981.4 0 21
2018-09-21 19:00:00 33.3 3 Sur 10 Este 0 981.3 -0.4 17
2018-09-21 18:00:00 33.2 5 Oeste 14 Norte 0 981.2 -1 18
2018-09-21 17:00:00 33.1 7 Oeste 15 Oeste 0 981.4 -1.5 18
2018-09-21 16:00:00 33.4 8 Sur 20 Sudoeste 0 981.7 -1.5 18
2018-09-21 15:00:00 32.3 10 Oeste 22 Oeste 0 982.2 -1.4 19
2018-09-21 14:00:00 31.3 6 Sudoeste 15 Oeste 0 982.9 -0.3 22
2018-09-21 13:00:00 29.1 5 Sudoeste 15 Oeste 0 983.2 0.1 28
2018-09-21 12:00:00 27.8 5 Sudeste 16 Sur 0 983.6 1.1 32
2018-09-21 11:00:00 25 5 Sudoeste 17 Sudeste 0 983.2 1.4 40
2018-09-21 10:00:00 21.7 5 Oeste 11 Norte 0 983.1 1.9 43
2018-09-21 09:00:00 19 5 Noroeste 15 Noroeste 0 982.5 1.4 45
2018-09-21 08:00:00 19.4 13 Noroeste 24 Noroeste 0 981.8 0.7 44
2018-09-21 07:00:00 19.8 4 Noroeste 27 Norte 0 981.2 0 45
2018-09-21 06:00:00 20.7 4 Noroeste 25 Norte 0 981.1 -0.2 42
2018-09-21 05:00:00 21.3 14 Norte 25 Noroeste 0 981.1 -0.7 41
2018-09-21 04:00:00 23 13 Norte 33 Norte 0 981.2 -0.4 37
2018-09-21 03:00:00 23.4 14 Norte 28 Norte 0 981.3 0 40
2018-09-21 02:00:00 22.8 12 Norte 18 Noroeste 0 981.8 0.8 43
2018-09-21 01:00:00 24.7 6 Norte 20 Noroeste 0 981.6 0.8 33
2018-09-21 00:00:00 25.3 11 Norte 24 Norte 0 981.3 1.3 29
2018-09-20 23:00:00 26.6 13 Norte 24 Norte 0 981 1.4 28
2018-09-20 22:00:00 27.1 12 Noroeste 28 Noroeste 0 980.8 1.3 34
2018-09-20 21:00:00 29.2 8 Oeste 22 Sudoeste 0 980 0 28
2018-09-20 20:00:00 32.1 7 Noroeste 19 Noroeste 0 979.6 -0.8 22
2018-09-20 19:00:00 34.5 7 Oeste 14 Sudoeste 0 979.5 -1.7 20
2018-09-20 18:00:00 34.7 6 Sudoeste 27 Noroeste 0 980 -1.8 20
2018-09-20 17:00:00 33.9 12 Norte 24 Noroeste 0 980.4 -2.1 21
2018-09-20 16:00:00 34.1 9 Sudoeste 19 Sudoeste 0 981.2 -1.9 21
2018-09-20 15:00:00 32.8 8 Oeste 17 Oeste 0 981.8 -1.6 24
2018-09-20 14:00:00 32 6 Este 21 Sudeste 0 982.5 -0.8 25
2018-09-20 13:00:00 30.1 11 Este 27 Este 0 983.1 0.1 32
2018-09-20 12:00:00 27.7 16 Este 27 Este 0 983.4 0.5 36
2018-09-20 11:00:00 24.9 6 Este 11 Este 0 983.3 0.7 41
2018-09-20 10:00:00 20 2 Oeste 8 Sudeste 0 983 0.5 53
2018-09-20 09:00:00 17.6 3 Noroeste 9 Noroeste 0 982.9 0.4 59
2018-09-20 08:00:00 17.8 4 Este 8 Nordeste 0 982.6 0.1 57
2018-09-20 07:00:00 18 3 Sudeste 7 Este 0 982.5 -0.2 54
2018-09-20 06:00:00 18.4 5 Este 8 Oeste 0 982.5 -0.5 53
2018-09-20 05:00:00 18.9 4 Oeste 9 Oeste 0 982.5 -0.5 51
2018-09-20 04:00:00 20.1 2 Este 5 Nordeste 0 982.7 -0.5 45
2018-09-20 03:00:00 20.7 4 Noroeste 7 Oeste 0 983 -0.1 42
2018-09-20 02:00:00 22.1 4 Este 9 Sudeste 0 983 -0.1 36
2018-09-20 01:00:00 23 5 Nordeste 18 Norte 0 983.2 0.7 34
2018-09-20 00:00:00 23.9 4 Noroeste 10 Noroeste 0 983.1 1.1 30
2018-09-19 23:00:00 25.6 4 Sudoeste 12 Norte 0 983.1 1.1 27
2018-09-19 22:00:00 27.2 2 Noroeste 9 Norte 0 982.5 0.7 24
2018-09-19 21:00:00 29.2 5 Norte 10 Noroeste 0 982 0.1 21
2018-09-19 20:00:00 32.4 4 Noroeste 12 Oeste 0 982 -0.1 18
2018-09-19 19:00:00 33.5 9 Oeste 14 Oeste 0 981.8 -0.7 18
2018-09-19 18:00:00 32.8 7 Oeste 23 Sudoeste 0 981.9 -1.2 17
2018-09-19 17:00:00 33.8 11 Sudoeste 21 Sudoeste 0 982.1 -1.4 17
2018-09-19 16:00:00 33.4 5 Sur 15 Sur 0 982.5 -1.6 19
2018-09-19 15:00:00 32.1 5 Sudoeste 18 Sudoeste 0 983.1 -1.2 23
2018-09-19 14:00:00 31 5 Sur 27 Nordeste 0 983.5 -0.6 26
2018-09-19 13:00:00 29 10 Este 23 Sudeste 0 984.1 0.6 38
2018-09-19 12:00:00 26.9 11 Este 19 Sudeste 0 984.3 1.4 43
2018-09-19 11:00:00 25.2 4 Sudeste 10 Este 0 984.1 1.6 46
2018-09-19 10:00:00 21.5 4 Noroeste 8 Noroeste 0 983.5 1.4 57
2018-09-19 09:00:00 19 2 Norte 6 Noroeste 0 982.9 1.3 65
2018-09-19 08:00:00 17.7 5 Noroeste 8 Noroeste 0 982.5 1 71
2018-09-19 07:00:00 18.5 3 Sudeste 9 Este 0 982.1 0.8 67
2018-09-19 06:00:00 19.6 4 Este 6 Este 0 981.6 0.1 62
2018-09-19 05:00:00 19.9 4 Este 9 Este 0 981.5 -0.1 62
2018-09-19 04:00:00 21.2 0 Calma 8 Oeste 0 981.3 -0.2 59
2018-09-19 03:00:00 22.1 3 Sudoeste 11 Noroeste 0 981.5 0.1 55
2018-09-19 02:00:00 22.2 2 Noroeste 16 Noroeste 0 981.6 0.6 53
2018-09-19 01:00:00 23.2 10 Noroeste 19 Noroeste 0 981.5 1.1 48
2018-09-19 00:00:00 23.8 5 Noroeste 12 Noroeste 0 981.4 2.1 44
2018-09-18 23:00:00 24.7 4 Oeste 19 Oeste 0 981 2.2 38
2018-09-18 22:00:00 26 6 Oeste 16 Oeste 0 980.4 1.9 33
2018-09-18 21:00:00 27.9 5 Oeste 10 Oeste 0 979.3 1 28
2018-09-18 20:00:00 30.6 7 Oeste 21 Oeste 0 978.8 0.2 27
2018-09-18 19:00:00 32.4 10 Oeste 30 Oeste 0 978.5 -0.3 22
2018-09-18 18:00:00 32.8 11 Oeste 28 Oeste 0 978.3 -1.3 25
2018-09-18 17:00:00 32.3 9 Oeste 26 Oeste 0 978.6 -1.6 28
2018-09-18 16:00:00 32.3 8 Sudoeste 23 Oeste 0 978.8 -1.8 29
2018-09-18 15:00:00 31.4 6 Sudoeste 21 Oeste 0 979.6 -0.9 32
2018-09-18 14:00:00 29.5 6 Oeste 18 Noroeste 0 980.2 -0.4 37
2018-09-18 13:00:00 28.6 8 Este 21 Este 0 980.6 0.3 40
2018-09-18 12:00:00 27.1 10 Este 23 Este 0 980.5 0.7 45
2018-09-18 11:00:00 25.3 13 Este 20 Este 0 980.6 1.5 51
2018-09-18 10:00:00 23.3 9 Este 15 Este 0 980.3 1.5 57
2018-09-18 09:00:00 21.2 10 Este 17 Este 0 979.8 1.2 65
2018-09-18 08:00:00 20.6 12 Este 19 Este 0 979.1 0.7 69
2018-09-18 07:00:00 21.2 9 Este 16 Nordeste 0 978.8 0.4 66
2018-09-18 06:00:00 21.6 8 Este 12 Este 0 978.6 0 63
2018-09-18 05:00:00 22.6 7 Este 11 Este 0 978.4 -0.2 60
2018-09-18 04:00:00 23 3 Nordeste 7 Este 0 978.4 0 59
2018-09-18 03:00:00 23 0 Calma 9 Sudoeste 0 978.6 0.6 58
2018-09-18 02:00:00 23.4 4 Sudoeste 15 Sur 0 978.6 0.7 54
2018-09-18 01:00:00 24.4 9 Este 20 Nordeste 0 978.4 0.7 50
2018-09-18 00:00:00 25.6 8 Norte 21 Norte 0 978 1.2 43
2018-09-17 23:00:00 25.9 4 Oeste 19 Oeste 0 977.9 1.5 44
2018-09-17 22:00:00 27.2 12 Sudoeste 23 Sudoeste 0 977.7 1.7 39
2018-09-17 21:00:00 27.7 6 Sur 15 Sur 0 976.8 0.4 33
2018-09-17 20:00:00 29.5 5 Sudoeste 20 Sudoeste 0 976.4 -0.7 30
2018-09-17 19:00:00 33.7 9 Sudoeste 21 Sudoeste 0 976 -2 25
2018-09-17 18:00:00 34.2 5 Sudoeste 16 Sudoeste 0 976.4 -2.7 22
2018-09-17 17:00:00 33.7 6 Oeste 19 Sudeste 0 977.1 -2.5 23
2018-09-17 16:00:00 33.5 12 Este 27 Este 0 978 -2.4 24
2018-09-17 15:00:00 32.6 8 Este 26 Este 0 979.1 -1.6 25
2018-09-17 14:00:00 31.5 10 Este 24 Este 0 979.6 -1.2 28
2018-09-17 13:00:00 29.8 15 Este 31 Este 0 980.4 -0.4 31
2018-09-17 12:00:00 28 18 Este 33 Este 0 980.7 0 41
2018-09-17 11:00:00 25.8 19 Este 34 Este 0 980.8 0.5 45
2018-09-17 10:00:00 23 18 Este 30 Este 0 980.8 0.8 49
2018-09-17 09:00:00 19.3 8 Este 13 Sudeste 0 980.7 0.6 68
2018-09-17 08:00:00 19.1 7 Este 10 Este 0 980.3 0 67
2018-09-17 07:00:00 19 2 Este 6 Noroeste 0 980 -0.5 68
2018-09-17 06:00:00 19.9 0 Calma 8 Este 0 980.1 -0.7 64
2018-09-17 05:00:00 20.8 6 Este 12 Este 0 980.3 -0.6 61
2018-09-17 04:00:00 21.4 5 Nordeste 10 Este 0 980.5 -0.8 59
2018-09-17 03:00:00 22.5 4 Sudeste 17 Este 0 980.8 -0.7 55
2018-09-17 02:00:00 23 11 Este 17 Este 0 980.9 -0.7 52
2018-09-17 01:00:00 23.4 6 Este 12 Sudeste 0 981.3 -0.2 51
2018-09-17 00:00:00 24.9 6 Noroeste 12 Noroeste 0 981.5 0.6 43
2018-09-16 23:00:00 26 6 Nordeste 17 Este 0 981.6 0.7 42
2018-09-16 22:00:00 26.9 0 Calma 16 Sudeste 0 981.5 0.7 39
2018-09-16 21:00:00 29.5 7 Norte 16 Norte 0 980.9 0 27
2018-09-16 20:00:00 31.4 3 Nordeste 10 Norte 0 980.9 -0.2 25
2018-09-16 19:00:00 32.4 4 Nordeste 10 Sudeste 0 980.8 -0.9 21
2018-09-16 18:00:00 32.9 3 Este 16 Sudeste 0 980.9 -1.6 25
2018-09-16 17:00:00 32.9 4 Oeste 17 Sudoeste 0 981.1 -2.1 26
2018-09-16 16:00:00 33 5 Sudeste 19 Sudeste 0 981.7 -2.2 28
2018-09-16 15:00:00 31.7 5 Sudoeste 23 Este 0 982.5 -1.9 30
2018-09-16 14:00:00 30.4 9 Este 21 Sudeste 0 983.2 -1.3 34
2018-09-16 13:00:00 28.8 9 Este 22 Este 0 983.9 -0.3 40
2018-09-16 12:00:00 27.2 12 Este 21 Sudeste 0 984.4 0.7 45
2018-09-16 11:00:00 25.2 13 Este 29 Este 0 984.5 1.1 50
2018-09-16 10:00:00 23.1 16 Este 31 Este 0 984.2 1.1 53
2018-09-16 09:00:00 21.1 14 Este 24 Este 0 983.7 1 59
2018-09-16 08:00:00 21.1 13 Este 19 Este 0 983.4 1 58
2018-09-16 07:00:00 21.7 12 Este 23 Este 0 983.1 0.7 55
2018-09-16 06:00:00 21.7 13 Este 23 Este 0 982.7 0.1 55
2018-09-16 05:00:00 21.8 13 Este 24 Este 0 982.4 -0.1 54
2018-09-16 04:00:00 22.2 12 Este 18 Este 0 982.4 0 56
2018-09-16 03:00:00 22.2 6 Este 9 Este 0 982.6 0.1 63
2018-09-16 02:00:00 23.2 3 Sudoeste 21 Nordeste 0 982.5 0.2 58
2018-09-16 01:00:00 24.8 7 Nordeste 18 Este 0 982.4 0.7 50
2018-09-16 00:00:00 25.7 10 Este 21 Este 0 982.5 1.6 47
2018-09-15 23:00:00 25.9 13 Este 20 Este 0 982.3 1.9 48
2018-09-15 22:00:00 27.7 10 Este 18 Sudeste 0 981.7 1.4 41
2018-09-15 21:00:00 29.7 6 Nordeste 11 Este 0 980.9 0.6 32
2018-09-15 20:00:00 32.1 8 Este 18 Sudeste 0 980.4 0.1 28
2018-09-15 19:00:00 33.3 9 Este 16 Sudeste 0 980.3 -0.5 26
2018-09-15 18:00:00 33.9 5 Oeste 13 Sudoeste 0 980.3 -1.1 26
2018-09-15 17:00:00 33.6 4 Sudoeste 15 Este 0 980.3 -1.9 28
2018-09-15 16:00:00 32.2 8 Este 26 Este 0 980.8 -1.7 30
2018-09-15 15:00:00 31.7 13 Este 30 Este 0 981.4 -1.5 32
2018-09-15 14:00:00 30.3 9 Este 25 Este 0 982.2 -0.7 36
2018-09-15 13:00:00 28.1 9 Este 26 Este 0 982.5 -0.2 44
2018-09-15 12:00:00 26.1 11 Este 20 Sudeste 0 982.9 0.8 49
2018-09-15 11:00:00 24 12 Este 21 Sudeste 0 982.9 1.5 59
2018-09-15 10:00:00 21.5 11 Este 16 Este 0 982.7 1.7 69
2018-09-15 09:00:00 18.5 9 Este 12 Este 0 982.1 1.4 83
2018-09-15 08:00:00 18.3 0 Calma 8 Sudeste 0 981.4 0.7 79
2018-09-15 07:00:00 19.3 4 Norte 14 Noroeste 0 981 0 74
2018-09-15 06:00:00 19.6 6 Noroeste 10 Noroeste 0 980.7 -0.9 73
2018-09-15 05:00:00 19.6 0 Calma 9 Oeste 0 980.7 -0.7 74
2018-09-15 04:00:00 20.2 4 Oeste 9 Oeste 0 981 -2.1 74
2018-09-15 03:00:00 20.7 2 Sur 23 Oeste 0 981.6 -0.8 73
2018-09-15 02:00:00 20.9 17 Oeste 31 Noroeste 0 981.4 0.9 77
2018-09-15 01:00:00 22.4 8 Sudoeste 42 Sur 0 983.1 3.3 60
2018-09-15 00:00:00 24.3 21 Sur 43 Sudoeste 0 982.4 3.7 51
2018-09-14 23:00:00 27.4 5 Sudoeste 13 Sudeste 0 980.5 1.8 39
2018-09-14 22:00:00 27.8 12 Este 26 Este 0 979.8 1.4 40
2018-09-14 21:00:00 28.9 8 Sudoeste 19 Oeste 0 978.7 0.2 34
2018-09-14 20:00:00 31.4 11 Este 30 Este 0 978.7 -0.2 29
2018-09-14 19:00:00 34.7 10 Noroeste 21 Oeste 0 978.4 -1.1 21
2018-09-14 18:00:00 35.6 7 Sudoeste 13 Sudoeste 0 978.5 -1.8 19
2018-09-14 17:00:00 35.1 4 Sudeste 13 Oeste 0 978.9 -2.1 20
2018-09-14 16:00:00 33.5 6 Oeste 18 Sudeste 0 979.5 -1.9 23
2018-09-14 15:00:00 33.9 8 Sudeste 19 Este 0 980.3 -1.3 25
2018-09-14 14:00:00 32.7 6 Sudeste 22 Sudeste 0 981 -0.3 27
2018-09-14 13:00:00 30.4 4 Este 21 Sudeste 0 981.4 0.4 31
2018-09-14 12:00:00 29.1 10 Este 21 Sudeste 0 981.6 1 33
2018-09-14 11:00:00 27.3 10 Este 17 Este 0 981.3 1.1 35
2018-09-14 10:00:00 24.4 2 Sudeste 8 Sur 0 981 1.2 51
2018-09-14 09:00:00 22.1 5 Sudeste 14 Nordeste 0 980.6 1.2 51
2018-09-14 08:00:00 20 5 Sudeste 8 Este 0 980.2 0.4 57
2018-09-14 07:00:00 21.1 3 Sudeste 10 Sudeste 0 979.8 -0.2 49
2018-09-14 06:00:00 23.3 5 Norte 12 Norte 0 979.4 -1 39
2018-09-14 05:00:00 23 4 Noroeste 10 Norte 0 979.8 -0.7 42
2018-09-14 04:00:00 24.7 7 Norte 13 Norte 0 980 -0.5 35
2018-09-14 03:00:00 23.7 3 Noroeste 6 Este 0 980.4 0.1 41
2018-09-14 02:00:00 24.7 5 Norte 9 Norte 0 980.5 0.5 40
2018-09-14 01:00:00 26.4 5 Norte 26 Norte 0 980.5 0.9 34
2018-09-14 00:00:00 27.5 12 Norte 25 Norte 0 980.3 1 32
2018-09-13 23:00:00 28 13 Norte 23 Norte 0 980 0.6 30
2018-09-13 22:00:00 28.7 5 Este 9 Este 0 979.6 0.1 27
2018-09-13 21:00:00 30.4 6 Este 7 Este 0 979.3 -0.5 25
2018-09-13 20:00:00 33.5 5 Sudeste 12 Sur 0 979.4 -1 22
2018-09-13 19:00:00 35 6 Sudeste 16 Este 0 979.5 -1.5 18
2018-09-13 18:00:00 35.5 6 Sudeste 17 Sudeste 0 979.8 -1.8 15
2018-09-13 17:00:00 35.4 12 Sudeste 21 Sudeste 0 980.4 -2 18
2018-09-13 16:00:00 35.2 7 Sudoeste 18 Sudoeste 0 981 -1.9 21
2018-09-13 15:00:00 34.7 9 Sur 18 Sudeste 0 981.6 -1.6 24
2018-09-13 14:00:00 33.1 11 Sudeste 19 Este 0 982.4 -0.8 25
2018-09-13 13:00:00 31.4 9 Este 23 Este 0 982.9 0.1 30
2018-09-13 12:00:00 28.9 7 Sudeste 19 Sudeste 0 983.2 0.7 33
2018-09-13 11:00:00 26.5 7 Sudeste 10 Sudeste 0 983.2 0.8 43
2018-09-13 10:00:00 23.7 3 Sudeste 9 Sudeste 0 982.8 0.6 52
2018-09-13 09:00:00 20.7 4 Norte 13 Oeste 0 982.5 0.4 58
2018-09-13 08:00:00 20.1 4 Nordeste 6 Nordeste 0 982.4 0.1 56
2018-09-13 07:00:00 20.6 3 Norte 10 Nordeste 0 982.2 -0.4 56
2018-09-13 06:00:00 21.7 4 Noroeste 9 Sudeste 0 982.1 -0.9 51
2018-09-13 05:00:00 23.6 5 Este 9 Este 0 982.3 -1 43
2018-09-13 04:00:00 23.1 7 Este 19 Norte 0 982.6 -0.8 48
2018-09-13 03:00:00 25.1 8 Norte 14 Norte 0 983 -0.3 40
2018-09-13 02:00:00 26 6 Norte 20 Nordeste 0 983.3 0.3 38
2018-09-13 01:00:00 26.9 10 Norte 24 Norte 0 983.4 0.7 34
2018-09-13 00:00:00 27 12 Norte 26 Norte 0 983.3 1 35
2018-09-12 23:00:00 26.4 4 Noroeste 7 Noroeste 0 983 0.7 29
2018-09-12 22:00:00 28.2 4 Nordeste 7 Nordeste 0 982.7 0.2 25
2018-09-12 21:00:00 30.3 4 Noroeste 7 Noroeste 0 982.3 -0.3 24
2018-09-12 20:00:00 33.7 3 Oeste 15 Noroeste 0 982.3 -0.8 17
2018-09-12 19:00:00 34 8 Oeste 22 Noroeste 0 982.5 -1.2 17
2018-09-12 18:00:00 34.4 5 Oeste 14 Oeste 0 982.6 -2 23
2018-09-12 17:00:00 33.5 5 Oeste 15 Noroeste 0 983.1 -2.4 23
2018-09-12 16:00:00 33.4 5 Sur 14 Oeste 0 983.7 -2.4 24
2018-09-12 15:00:00 31.9 5 Sudoeste 18 Este 0 984.6 -1.6 34
2018-09-12 14:00:00 30.4 8 Sudeste 22 Este 0 985.5 -0.5 38
2018-09-12 13:00:00 28.6 14 Este 30 Este 0 986.1 0.6 45
2018-09-12 12:00:00 27.4 16 Este 32 Este 0 986.2 1 49
2018-09-12 11:00:00 25.5 17 Este 32 Este 0 986 1.3 56
2018-09-12 10:00:00 23.9 15 Este 27 Este 0 985.5 1.3 63
2018-09-12 09:00:00 22 13 Este 23 Este 0 985.2 1.3 70
2018-09-12 08:00:00 21.5 13 Este 32 Este 0 984.7 1 70
2018-09-12 07:00:00 21.8 14 Este 30 Este 0 984.2 0.7 67
2018-09-12 06:00:00 22.1 16 Este 29 Este 0 983.9 0.4 60
2018-09-12 05:00:00 22.1 13 Este 24 Este 0 983.7 0.2 55
2018-09-12 04:00:00 22.5 11 Este 19 Este 0 983.5 0 48
2018-09-12 03:00:00 22.5 3 Norte 7 Nordeste 0 983.5 0 46
2018-09-12 02:00:00 23.2 2 Oeste 10 Este 0 983.5 0.3 44
2018-09-12 01:00:00 24.9 6 Este 12 Este 0 983.5 0.8 37
2018-09-12 00:00:00 25.7 7 Este 14 Nordeste 0 983.5 1.3 34
2018-09-11 23:00:00 26.6 7 Este 13 Este 0 983.2 1.2 33
2018-09-11 22:00:00 26.7 7 Este 17 Este 0 982.7 0.6 34
2018-09-11 21:00:00 28.3 11 Este 19 Este 0 982.2 -0.2 31
2018-09-11 20:00:00 30.2 13 Sudeste 26 Este 0 982 -0.9 27
2018-09-11 19:00:00 31.4 15 Este 30 Sudeste 0 982.1 -1.7 25
2018-09-11 18:00:00 31.7 16 Este 32 Sudeste 0 982.4 -2 26
2018-09-11 17:00:00 31.7 19 Este 35 Sudeste 0 982.9 -2.1 27
2018-09-11 16:00:00 31.5 22 Este 36 Sudeste 0 983.8 -1.7 28
2018-09-11 15:00:00 31.1 19 Este 39 Este 0 984.4 -1.7 29
2018-09-11 14:00:00 29.9 22 Este 37 Este 0 985 -1 34
2018-09-11 13:00:00 28.3 24 Este 44 Este 0 985.5 -0.3 37
2018-09-11 12:00:00 26.8 27 Este 49 Este 0 986.1 0.4 43
2018-09-11 11:00:00 25.4 24 Este 39 Este 0 986 0.6 48
2018-09-11 10:00:00 23.4 22 Este 37 Este 0 985.8 0.6 55
2018-09-11 09:00:00 21.8 18 Este 30 Este 0 985.7 0.8 59
2018-09-11 08:00:00 21.1 11 Este 17 Este 0 985.4 0.5 61
2018-09-11 07:00:00 21.2 5 Este 17 Este 0 985.2 0.6 61
2018-09-11 06:00:00 21.5 11 Este 22 Este 0 984.9 0.3 60
2018-09-11 05:00:00 21.6 14 Este 29 Este 0 984.9 0.2 58
2018-09-11 04:00:00 22.4 14 Este 24 Este 0 984.6 0 52
2018-09-11 03:00:00 22.2 8 Este 12 Este 0 984.6 -0.1 50
2018-09-11 02:00:00 21.6 3 Sudeste 5 Sudeste 0 984.7 0.2 54
2018-09-11 01:00:00 22.8 3 Oeste 10 Nordeste 0 984.6 0.6 51
2018-09-11 00:00:00 23.9 5 Este 8 Este 0 984.7 1.5 47
2018-09-10 23:00:00 25.3 4 Nordeste 6 Nordeste 0 984.5 1.5 38
2018-09-10 22:00:00 26.1 4 Este 6 Este 0 984 1 37
2018-09-10 21:00:00 28.2 0 Calma 4 Sur 0 983.2 0.1 36
2018-09-10 20:00:00 31.1 3 Sur 13 Sudeste 0 983 -0.6 26
2018-09-10 19:00:00 31.6 6 Sur 18 Sudeste 0 983 -1.3 25
2018-09-10 18:00:00 31.7 10 Sudeste 24 Sudeste 0 983.1 -1.9 26
2018-09-10 17:00:00 31.5 11 Este 24 Sudeste 0 983.6 -2.2 27
2018-09-10 16:00:00 31.4 8 Sudeste 23 Este 0 984.3 -2 28
2018-09-10 15:00:00 29.8 9 Nordeste 26 Este 0 985 -1.4 31
2018-09-10 14:00:00 29.1 9 Este 26 Sudeste 0 985.8 -0.2 34
2018-09-10 13:00:00 27.6 12 Este 26 Este 0 986.3 0.6 39
2018-09-10 12:00:00 25.7 13 Este 23 Sudeste 0 986.4 1.1 47
2018-09-10 11:00:00 23.4 8 Sudeste 12 Sudeste 0 986 1.5 57
2018-09-10 10:00:00 20.6 2 Sur 14 Oeste 0 985.7 1.3 66
2018-09-10 09:00:00 18.6 4 Este 13 Este 0 985.3 1.4 72
2018-09-10 08:00:00 17.6 10 Este 15 Este 0 984.5 0.6 72
2018-09-10 07:00:00 16.5 11 Este 17 Este 0 984.4 0.5 80
2018-09-10 06:00:00 17.3 2 Nordeste 10 Sudeste 0 983.9 -0.2 77
2018-09-10 05:00:00 18.1 5 Este 10 Nordeste 0 983.9 -0.1 74
2018-09-10 04:00:00 19.3 3 Norte 10 Este 0 983.9 0.1 62
2018-09-10 03:00:00 19.5 7 Este 15 Este 0 984.1 0.7 63
2018-09-10 02:00:00 20 3 Oeste 10 Norte 0 984 0.5 59
2018-09-10 01:00:00 22.2 8 Norte 18 Norte 0 983.8 0.7 48
2018-09-10 00:00:00 23.3 13 Norte 21 Norte 0 983.4 1.2 44
2018-09-09 23:00:00 24.7 10 Norte 23 Norte 0 983.5 1.9 38
2018-09-09 22:00:00 24.1 12 Norte 24 Norte 0 983.1 1.6 45
2018-09-09 21:00:00 24.9 9 Norte 20 Norte 0 982.2 0.8 50
2018-09-09 20:00:00 27.9 3 Norte 8 Noroeste 0 981.6 0.1 38
2018-09-09 19:00:00 28.3 5 Sudeste 17 Sudeste 0 981.5 -0.7 39
2018-09-09 18:00:00 30.3 5 Sudoeste 20 Sudoeste 0 981.4 -1.3 32
2018-09-09 17:00:00 29.1 7 Nordeste 22 Nordeste 0 981.5 -1.8 34
2018-09-09 16:00:00 29.1 10 Sudeste 20 Este 0 982.2 -1.8 37
2018-09-09 15:00:00 27.7 11 Este 25 Este 0 982.7 -1.5 44
2018-09-09 14:00:00 26.3 15 Este 26 Este 0 983.3 -0.7 49
2018-09-09 13:00:00 24.9 13 Este 30 Este 0 984 0.4 56
2018-09-09 12:00:00 23.9 13 Este 23 Este 0 984.2 0.8 57
2018-09-09 11:00:00 21.8 7 Este 12 Este 0 984 1.2 66
2018-09-09 10:00:00 18.6 3 Nordeste 9 Este 0 983.6 1.3 82
2018-09-09 09:00:00 16.8 4 Este -- -- 0 983.4 1.1 91
2018-09-09 08:00:00 16 3 Sudeste 12 Nordeste 0 982.8 0.8 88
2018-09-09 07:00:00 16 5 Sudeste 9 Sudeste 0 982.3 0.4 88
2018-09-09 06:00:00 16.1 2 Oeste 5 Sudoeste 0 982.3 0.5 90
2018-09-09 05:00:00 16.9 2 Norte 8 Nordeste 0 982 0.1 82
2018-09-09 04:00:00 16.7 2 Nordeste 10 Este 0 981.9 -0.1 86
2018-09-09 03:00:00 17 5 Este 10 Este 0 981.8 0.2 83
2018-09-09 02:00:00 17.2 8 Este 10 Este 0 981.9 0.8 82
2018-09-09 01:00:00 18.3 3 Sudeste 19 Este 0 982 1.7 87
2018-09-09 00:00:00 18.5 11 Este 18 Este 0 981.6 2.2 92
2018-09-08 23:00:00 18.8 7 Nordeste 41 Este 0 981.1 3.1 89
2018-09-08 22:00:00 17.6 15 Este 41 Sudeste 2 980.3 2.5 84
2018-09-08 21:00:00 19.7 27 Este 53 Este 5.8 979.4 1.5 85
2018-09-08 20:00:00 26 18 Este 37 Este 0 978 0.2 50
2018-09-08 19:00:00 26.5 11 Nordeste 25 Nordeste 0 977.8 -0.3 45
2018-09-08 18:00:00 27 6 Este 31 Este 0 977.9 -1.1 48
2018-09-08 17:00:00 27.3 13 Este 37 Este 0 977.8 -1.3 47
2018-09-08 16:00:00 28.7 21 Este 40 Este 0 978.1 -1.4 38
2018-09-08 15:00:00 27.1 25 Este 46 Sudeste 0 979 -0.7 46
2018-09-08 14:00:00 26.6 23 Este 42 Sudeste 0 979.1 -0.4 55
2018-09-08 13:00:00 25.5 20 Este 38 Este 0 979.5 0.1 62
2018-09-08 12:00:00 22.9 18 Este 34 Este 0 979.7 0.9 71
2018-09-08 11:00:00 21.9 10 Este 25 Este 0 979.5 0.9 71
2018-09-08 10:00:00 18.6 6 Este 15 Norte 0 979.4 0.8 88
2018-09-08 09:00:00 17.5 7 Noroeste 19 Noroeste 3 978.8 0.5 88
2018-09-08 08:00:00 17.4 12 Sudeste 19 Este 4.8 978.6 1.2 84
2018-09-08 07:00:00 17.4 5 Noroeste 27 Nordeste 0.2 978.6 1.5 78
2018-09-08 06:00:00 17.6 13 Este 21 Sudeste 1 978.3 0.9 80
2018-09-08 05:00:00 19.9 9 Este 13 Nordeste 0 977.4 -0.1 52
2018-09-08 04:00:00 21.3 7 Nordeste 10 Nordeste 0 977.1 -0.1 47
2018-09-08 03:00:00 21.6 5 Nordeste 9 Este 0 977.4 0.8 50
2018-09-08 02:00:00 22.4 4 Sudeste 9 Sur 0 977.5 1.5 48
2018-09-08 01:00:00 23.3 4 Sudoeste 8 Oeste 0 977.2 1.8 43
2018-09-08 00:00:00 24.3 5 Sur 16 Este 0 976.6 1.8 38
2018-09-07 23:00:00 25.4 5 Este 15 Sudeste 0 976 1.5 34
2018-09-07 22:00:00 27.2 7 Este 13 Este 0 975.4 0.9 27
2018-09-07 21:00:00 28.7 4 Nordeste 18 Este 0 974.8 -0.1 25
2018-09-07 20:00:00 30.7 8 Nordeste 22 Nordeste 0 974.5 -0.8 21
2018-09-07 19:00:00 31 10 Nordeste 24 Nordeste 0 974.5 -1.2 21
2018-09-07 18:00:00 31.1 12 Este 27 Este 0 974.9 -1.4 19
2018-09-07 17:00:00 31 11 Este 30 Sudeste 0 975.3 -1.6 21
2018-09-07 16:00:00 31.2 14 Este 29 Este 0 975.7 -2 19
2018-09-07 15:00:00 30.5 18 Este 30 Este 0 976.3 -2 24
2018-09-07 14:00:00 29.4 18 Este 30 Este 0 976.9 -1.1 30
2018-09-07 13:00:00 27.7 14 Este 31 Este 0 977.7 -0.2 37
2018-09-07 12:00:00 25.3 18 Este 32 Este 0 978.3 0.5 41
2018-09-07 11:00:00 24.3 19 Este 35 Este 0 978 0.3 43
2018-09-07 10:00:00 22.1 14 Este 23 Este 0 977.9 0.6 50
2018-09-07 09:00:00 17.5 4 Este 8 Este 0 977.8 0.4 68
2018-09-07 08:00:00 15.9 4 Norte 8 Este 0 977.7 0.2 74
2018-09-07 07:00:00 16.4 4 Este 7 Sudeste 0 977.3 -0.2 73
2018-09-07 06:00:00 16.6 0 Calma 7 Este 0 977.4 -0.1 73
2018-09-07 05:00:00 17.1 4 Este 8 Sudeste 0 977.5 0 71
2018-09-07 04:00:00 19.1 5 Este 8 Este 0 977.5 -0.2 62
2018-09-07 03:00:00 19.5 3 Sudeste 7 Sudeste 0 977.5 -0.1 60
2018-09-07 02:00:00 20.2 4 Noroeste 5 Noroeste 0 977.5 -0.1 60
2018-09-07 01:00:00 20.3 3 Sudoeste 8 Este 0 977.7 0.4 60
2018-09-07 00:00:00 21.1 4 Este 9 Este 0 977.6 1 56
2018-09-06 23:00:00 22 0 Calma 21 Nordeste 0 977.6 1.1 55
2018-09-06 22:00:00 24 8 Este 19 Nordeste 0 977.3 0.9 46
2018-09-06 21:00:00 25.7 9 Nordeste 17 Nordeste 0 976.6 0.1 41
2018-09-06 20:00:00 28.1 7 Nordeste 26 Norte 0 976.5 -0.4 31
2018-09-06 19:00:00 28.7 11 Norte 27 Norte 0 976.4 -1 31
2018-09-06 18:00:00 29.8 12 Norte 27 Norte 0 976.5 -1.4 30
2018-09-06 17:00:00 30.3 6 Sur 21 Oeste 0 976.9 -1.5 27
2018-09-06 16:00:00 29.4 5 Sudoeste 21 Sudoeste 0 977.4 -1.7 30
2018-09-06 15:00:00 28.4 6 Sudoeste 20 Sur 0 977.9 -1.4 32
2018-09-06 14:00:00 26.2 7 Sudoeste 20 Sudoeste 0 978.4 -0.7 39
2018-09-06 13:00:00 25.3 5 Sur 18 Sudoeste 0 979.1 0.3 47
2018-09-06 12:00:00 23 6 Sudoeste 16 Sudoeste 0 979.3 0.8 57
2018-09-06 11:00:00 20.1 5 Sudoeste 11 Sur 0 979.1 1.1 68
2018-09-06 10:00:00 17.9 4 Sudoeste 8 Sudoeste 0 978.8 1.2 78
2018-09-06 09:00:00 16.2 0 Calma 8 Noroeste 0 978.5 1 83
2018-09-06 08:00:00 15.6 4 Noroeste 13 Noroeste 0 978 0.4 85
2018-09-06 07:00:00 16.1 8 Noroeste 12 Noroeste 0 977.6 -0.1 82
2018-09-06 06:00:00 16.5 4 Noroeste 10 Noroeste 0 977.5 -0.5 80
2018-09-06 05:00:00 17.6 6 Noroeste 10 Noroeste 0 977.6 -0.4 76
2018-09-06 04:00:00 18.4 7 Noroeste 13 Noroeste 0 977.7 -0.2 72
2018-09-06 03:00:00 18.7 5 Noroeste 8 Oeste 0 978 0 70
2018-09-06 02:00:00 18.9 3 Oeste 9 Oeste 0 978 -0.2 69
2018-09-06 01:00:00 19.7 3 Oeste 9 Norte 0 977.9 0 64
2018-09-06 00:00:00 20.4 7 Noroeste 19 Noroeste 0 978 1 61
2018-09-05 23:00:00 21.2 5 Oeste 14 Oeste 0 978.2 1.3 53
2018-09-05 22:00:00 22 6 Sudoeste 17 Oeste 0 977.9 1 50
2018-09-05 21:00:00 23.5 9 Oeste 16 Sudoeste 0 977 -0.1 45
2018-09-05 20:00:00 26.7 9 Sudoeste 23 Oeste 0 976.9 -0.6 33
2018-09-05 19:00:00 26.5 3 Sudoeste 20 Sur 0 976.9 -1.3 35
2018-09-05 18:00:00 27 7 Sudoeste 23 Sudoeste 0 977.1 -1.6 36
2018-09-05 17:00:00 27.7 9 Sudoeste 19 Sudeste 0 977.5 -1.5 37
2018-09-05 16:00:00 24.9 5 Oeste 20 Sudoeste 0 978.2 -1.2 47
2018-09-05 15:00:00 24.5 6 Sur 13 Sudoeste 0 978.7 -0.8 49
2018-09-05 14:00:00 24.1 8 Sudoeste 18 Oeste 0 979 -0.4 52
2018-09-05 13:00:00 22.7 6 Oeste 14 Sudoeste 0 979.4 0.3 59
2018-09-05 12:00:00 22.8 8 Sudoeste 14 Sur 0 979.5 0.8 61
2018-09-05 11:00:00 21.7 7 Sudoeste 15 Sudoeste 0 979.4 1.3 67
2018-09-05 10:00:00 19.9 4 Sudoeste 9 Sudoeste 0 979.1 1.5 77
2018-09-05 09:00:00 19 5 Sudoeste 12 Sudoeste 0 978.7 1.5 79
2018-09-05 08:00:00 18.3 2 Oeste 11 Oeste 0 978.1 1.3 77
2018-09-05 07:00:00 18.1 7 Oeste 12 Oeste 0 977.6 0.8 73
2018-09-05 06:00:00 18.7 7 Oeste 13 Oeste 0 977.2 0.3 68
2018-09-05 05:00:00 18.8 3 Sudoeste 8 Sudoeste 0 976.8 -0.1 64
2018-09-05 04:00:00 19.2 4 Noroeste 9 Oeste 0 976.8 0 63
2018-09-05 03:00:00 19.7 6 Oeste 10 Oeste 0 976.9 0.2 59
2018-09-05 02:00:00 20.2 3 Oeste 6 Oeste 0 976.9 0.5 57
2018-09-05 01:00:00 21 2 Noroeste 6 Sur 0 976.8 0.7 55
2018-09-05 00:00:00 22.2 2 Oeste 8 Noroeste 0 976.7 1.4 49
2018-09-04 23:00:00 22.5 5 Noroeste 11 Oeste 0 976.4 1.7 49
2018-09-04 22:00:00 23 8 Oeste 22 Oeste 0 976.1 1.5 49
2018-09-04 21:00:00 24.8 14 Oeste 26 Oeste 0 975.3 0.6 44
2018-09-04 20:00:00 27.8 12 Sudoeste 22 Sudoeste 0 974.7 -0.3 34
2018-09-04 19:00:00 29.7 11 Sudoeste 19 Sudoeste 0 974.6 -0.9 30
2018-09-04 18:00:00 29.4 7 Sudoeste 21 Sur 0 974.7 -1.3 30
2018-09-04 17:00:00 29.6 9 Sudoeste 28 Sudoeste 0 975 -1.4 31
2018-09-04 16:00:00 28.8 11 Oeste 22 Oeste 0 975.5 -1.4 37
2018-09-04 15:00:00 27.1 6 Sudoeste 20 Sudoeste 0 976 -1 43
2018-09-04 14:00:00 25.9 8 Oeste 18 Oeste 0 976.4 -0.8 47
2018-09-04 13:00:00 25.9 9 Sudoeste 22 Sudoeste 0 976.9 0.1 47
2018-09-04 12:00:00 24.3 8 Sudoeste 18 Sudoeste 0 977 0.4 53
2018-09-04 11:00:00 21.9 5 Sudoeste 14 Sudoeste 0 977.2 1.2 63
2018-09-04 10:00:00 19.5 5 Sudoeste 10 Oeste 0 976.8 1.1 71
2018-09-04 09:00:00 17.9 3 Oeste 6 Oeste 0 976.6 1.3 78
2018-09-04 08:00:00 17.3 0 Calma 8 Sudoeste 0 976 0.8 79
2018-09-04 07:00:00 17.9 3 Sudoeste 9 Sudoeste 0 975.7 0.4 75
2018-09-04 06:00:00 18.6 3 Sur 8 Oeste 0 975.3 -0.1 70
2018-09-04 05:00:00 19.3 5 Oeste 10 Oeste 0 975.2 -0.1 68
2018-09-04 04:00:00 20.3 3 Noroeste 12 Oeste 0 975.3 -0.1 64
2018-09-04 03:00:00 20.8 5 Noroeste 13 Noroeste 0 975.4 -0.1 62
2018-09-04 02:00:00 21.8 7 Noroeste 16 Oeste 0 975.3 0.1 57
2018-09-04 01:00:00 22.4 9 Oeste 15 Oeste 0 975.4 0.8 55
2018-09-04 00:00:00 23.1 10 Oeste 18 Sudoeste 0 975.5 1.5 53
2018-09-03 23:00:00 24.6 6 Oeste 17 Oeste 0 975.2 1.3 48
2018-09-03 22:00:00 25.5 2 Oeste 10 Noroeste 0 974.6 0.5 48
2018-09-03 21:00:00 27.4 2 Oeste 14 Sudoeste 0 974 -0.4 43
2018-09-03 20:00:00 29.2 8 Sudoeste 20 Oeste 0 973.9 -0.6 37
2018-09-03 19:00:00 30.4 10 Sudoeste 24 Sudoeste 0 974.1 -0.9 35
2018-09-03 18:00:00 31 8 Sudoeste 24 Sudoeste 0 974.4 -1 33
2018-09-03 17:00:00 30.5 12 Sudoeste 26 Sudoeste 0 974.5 -1.4 39
2018-09-03 16:00:00 29.8 8 Sudoeste 24 Oeste 0 975 -1.5 41
2018-09-03 15:00:00 28.7 9 Sudoeste 24 Sudoeste 0 975.4 -1.4 47
2018-09-03 14:00:00 27 9 Oeste 22 Oeste 0 975.9 -0.8 56
2018-09-03 13:00:00 27 9 Sudoeste 21 Sudoeste 0 976.5 0.1 56
2018-09-03 12:00:00 25.7 10 Sur 19 Sudeste 0 976.8 0.6 59
2018-09-03 11:00:00 22.7 2 Sur 12 Oeste 0 976.7 1.2 69
2018-09-03 10:00:00 22.4 7 Oeste 15 Oeste 0 976.4 0.8 70
2018-09-03 09:00:00 21.6 3 Oeste 10 Sur 0 976.2 1.2 72
2018-09-03 08:00:00 21.7 8 Sur 13 Sur 0 975.5 0.8 69
2018-09-03 07:00:00 22.6 3 Este 7 Sudeste 0 975.6 1 66
2018-09-03 06:00:00 23.3 0 Calma 7 Oeste 0 975 0.6 61
2018-09-03 05:00:00 24.3 3 Noroeste 11 Oeste 0 974.7 0.2 59
2018-09-03 04:00:00 24.8 6 Sudoeste 11 Sudoeste 0 974.6 0.2 57
2018-09-03 03:00:00 25.6 4 Noroeste 10 Oeste 0 974.4 0 52
2018-09-03 02:00:00 26.5 2 Oeste 9 Este 0 974.5 0.1 43
2018-09-03 01:00:00 27.3 6 Este 12 Este 0 974.4 0.2 39
2018-09-03 00:00:00 28.8 4 Sudeste 17 Sudoeste 0 974.4 0.5 37
2018-09-02 23:00:00 29.7 7 Noroeste 28 Sudoeste 0 974.4 0.4 33
2018-09-02 22:00:00 32.2 7 Sudeste 16 Sudeste 0 974.2 -0.1 25
2018-09-02 21:00:00 33 6 Nordeste 14 Este 0 973.9 -0.9 25
2018-09-02 20:00:00 35.5 11 Este 20 Oeste 0 974 -1.4 20
2018-09-02 19:00:00 37.4 6 Sur 19 Sudeste 0 974.3 -2.1 18
2018-09-02 18:00:00 37.5 8 Este 23 Este 0 974.8 -2.3 17
2018-09-02 17:00:00 37.1 10 Este 22 Este 0 975.4 -2.6 19
2018-09-02 16:00:00 36.1 8 Norte 24 Este 0 976.4 -2.3 22
2018-09-02 15:00:00 35.9 12 Este 20 Este 0 977.1 -2.1 24
2018-09-02 14:00:00 34.2 8 Este 19 Este 0 978 -1.6 26
2018-09-02 13:00:00 32.3 6 Este 20 Sudeste 0 978.7 -0.7 28
2018-09-02 12:00:00 31.2 6 Sudeste 14 Este 0 979.2 0.2 30
2018-09-02 11:00:00 28.8 4 Sur 11 Sudeste 0 979.6 1.5 33
2018-09-02 10:00:00 25.1 3 Noroeste 9 Noroeste 0 979.4 1.8 43
2018-09-02 09:00:00 23.1 2 Sur 14 Este 0 979 1.7 47
2018-09-02 08:00:00 23.2 8 Este 13 Nordeste 0 978.1 1 41
2018-09-02 07:00:00 23.6 3 Este 11 Este 0 977.6 0.5 39
2018-09-02 06:00:00 23.8 5 Este 14 Este 0 977.3 0.2 38
2018-09-02 05:00:00 23.7 6 Este 10 Sudeste 0 977.1 -0.4 42
2018-09-02 04:00:00 25.1 4 Este 18 Nordeste 0 977.1 0.1 38
2018-09-02 03:00:00 27.9 5 Nordeste 15 Nordeste 0 977.1 0 26
2018-09-02 02:00:00 25.3 6 Norte 25 Sur 0 977.5 0.5 41
2018-09-02 01:00:00 27.3 7 Este 16 Este 0 977 0.2 31
2018-09-02 00:00:00 28.6 9 Este 13 Este 0 977.1 0.6 27
2018-09-01 23:00:00 30.9 4 Este 15 Nordeste 0 977 0.5 23
2018-09-01 22:00:00 33.1 6 Nordeste 13 Este 0 976.8 0 20
2018-09-01 21:00:00 34.2 5 Nordeste 12 Este 0 976.5 -0.7 20
2018-09-01 20:00:00 36.6 5 Nordeste 17 Este 0 976.5 -1.1 17
2018-09-01 19:00:00 37.3 8 Este 24 Este 0 976.8 -1.5 16
2018-09-01 18:00:00 37.7 11 Este 28 Este 0 977.2 -1.7 16
2018-09-01 17:00:00 37.4 14 Este 26 Este 0 977.6 -1.9 16
2018-09-01 16:00:00 36.6 12 Este 26 Este 0 978.3 -1.7 20
2018-09-01 15:00:00 35.5 14 Este 32 Este 0 978.9 -1.6 23
2018-09-01 14:00:00 33.8 21 Este 35 Sudeste 0 979.5 -1 26
2018-09-01 13:00:00 32.1 19 Este 36 Este 0 980 -0.1 28
2018-09-01 12:00:00 30.3 21 Este 35 Este 0 980.5 0.9 31
2018-09-01 11:00:00 28.6 15 Este 29 Este 0 980.5 1.3 36
2018-09-01 10:00:00 27.4 17 Este 31 Este 0 980.1 1.1 32
2018-09-01 09:00:00 25.5 14 Este 24 Este 0 979.6 0.6 31
2018-09-01 08:00:00 24.4 9 Este 18 Nordeste 0 979.2 0.3 31
2018-09-01 07:00:00 24.6 6 Este 14 Este 0 979 0.1 31
2018-09-01 06:00:00 22.6 3 Noroeste 13 Este 0 979 0.3 39
2018-09-01 05:00:00 23.6 8 Este 14 Nordeste 0 978.9 0.1 35
2018-09-01 04:00:00 24.3 6 Este 9 Este 0 978.9 0.1 33
2018-09-01 03:00:00 25.4 6 Este 8 Este 0 978.7 0.1 30
2018-09-01 02:00:00 27.2 5 Sudeste 28 Nordeste 0 978.8 0.2 27
2018-09-01 01:00:00 28.5 4 Nordeste 29 Nordeste 0 978.8 0.7 24
2018-09-01 00:00:00 30.6 12 Nordeste 32 Nordeste 0 978.6 0.9 20
2018-08-31 23:00:00 31.2 12 Nordeste 25 Norte 0 978.6 1 21
2018-08-31 22:00:00 31.7 8 Norte 17 Norte 0 978.1 0.3 19
2018-08-31 21:00:00 33.5 5 Este 7 Este 0 977.7 -0.4 18
2018-08-31 20:00:00 36.2 3 Sudeste 12 Sudeste 0 977.6 -0.9 14
2018-08-31 19:00:00 37.3 5 Este 12 Sudeste 0 977.8 -1.1 12
2018-08-31 18:00:00 37.5 3 Nordeste 18 Sudeste 0 978.1 -1.3 10
2018-08-31 17:00:00 37.4 6 Sudeste 21 Sudeste 0 978.5 -1.4 13
2018-08-31 16:00:00 37 11 Sur 20 Sur 0 978.9 -1.5 15
2018-08-31 15:00:00 36 8 Sudeste 25 Sudeste 0 979.4 -1.5 18
2018-08-31 14:00:00 34.5 12 Este 22 Sudeste 0 979.9 -1.1 22
2018-08-31 13:00:00 32.7 12 Sudeste 26 Este 0 980.4 -0.3 27
2018-08-31 12:00:00 30.5 14 Este 30 Este 0 980.9 0.5 31
2018-08-31 11:00:00 28.8 10 Este 16 Este 0 981 1.1 31
2018-08-31 10:00:00 25.4 3 Sudeste 6 Este 0 980.7 1.2 41
2018-08-31 09:00:00 22.1 5 Norte 8 Este 0 980.4 1.3 46
2018-08-31 08:00:00 20.7 3 Este 8 Oeste 0 979.9 0.9 47
2018-08-31 07:00:00 22 4 Nordeste 10 Este 0 979.5 0.4 43
2018-08-31 06:00:00 23.1 7 Nordeste 9 Este 0 979.1 -0.5 38
2018-08-31 05:00:00 23.5 4 Este 8 Nordeste 0 979 -0.9 37
2018-08-31 04:00:00 25.6 4 Nordeste 23 Norte 0 979.1 -0.7 33
2018-08-31 03:00:00 27 12 Norte 23 Norte 0 979.6 -0.1 28
2018-08-31 02:00:00 27.2 6 Norte 20 Norte 0 979.9 0.3 27
2018-08-31 01:00:00 26.2 3 Noroeste 23 Norte 0 979.8 0.6 33
2018-08-31 00:00:00 28.8 13 Norte 27 Norte 0 979.7 0.7 26
2018-08-30 23:00:00 29.4 13 Norte 24 Norte 0 979.6 0.8 24
2018-08-30 22:00:00 30.2 6 Nordeste 8 Este 0 979.2 0.3 24
2018-08-30 21:00:00 32.4 5 Nordeste 10 Norte 0 979 -0.2 21
2018-08-30 20:00:00 34.7 6 Noroeste 23 Oeste 0 978.8 -0.9 17
2018-08-30 19:00:00 36.1 5 Oeste 21 Sudeste 0 978.9 -1.3 15
2018-08-30 18:00:00 35.9 5 Sudeste 16 Noroeste 0 979.2 -1.5 17
2018-08-30 17:00:00 35.3 8 Oeste 22 Oeste 0 979.7 -1.4 18
2018-08-30 16:00:00 35.3 3 Nordeste 13 Sur 0 980.2 -1.3 20
2018-08-30 15:00:00 33.9 9 Sudeste 23 Este 0 980.7 -1.3 21
2018-08-30 14:00:00 32.4 13 Este 27 Este 0 981.1 -0.8 30
2018-08-30 13:00:00 30.7 15 Este 29 Este 0 981.5 -0.3 35
2018-08-30 12:00:00 29.4 14 Este 28 Este 0 982 0.7 37
2018-08-30 11:00:00 27.4 9 Este 19 Este 0 981.9 1 38
2018-08-30 10:00:00 24.8 3 Sur 28 Noroeste 0 981.8 1.4 51
2018-08-30 09:00:00 22.7 3 Nordeste 11 Este 0 981.3 0.8 50
2018-08-30 08:00:00 21 5 Nordeste 8 Norte 0 980.9 0.6 54
2018-08-30 07:00:00 21.3 4 Nordeste 12 Este 0 980.4 0.1 52
2018-08-30 06:00:00 21.5 6 Nordeste 13 Norte 0 980.5 -0.3 52
2018-08-30 05:00:00 22.7 11 Norte 23 Norte 0 980.3 -0.6 49
2018-08-30 04:00:00 23.5 10 Norte 27 Norte 0 980.3 -0.4 45
2018-08-30 03:00:00 23.9 10 Norte 20 Norte 0 980.8 0.2 44
2018-08-30 02:00:00 24.3 4 Nordeste 25 Norte 0 980.9 0.7 44
2018-08-30 01:00:00 25 15 Norte 23 Norte 0 980.7 0.8 44
2018-08-30 00:00:00 26 12 Norte 23 Norte 0 980.6 1.3 38
2018-08-29 23:00:00 26.8 10 Norte 19 Noroeste 0 980.2 1.1 34
2018-08-29 22:00:00 28.4 14 Noroeste 24 Noroeste 0 979.9 0.8 32
2018-08-29 21:00:00 30.3 7 Noroeste 12 Oeste 0 979.3 0.1 27
2018-08-29 20:00:00 32.6 10 Oeste 20 Noroeste 0 979.1 -0.7 24
2018-08-29 19:00:00 33.5 10 Oeste 20 Oeste 0 979.1 -1.2 22
2018-08-29 18:00:00 33.6 10 Oeste 24 Oeste 0 979.2 -1.3 21
2018-08-29 17:00:00 32.6 9 Noroeste 24 Noroeste 0 979.8 -1 24
2018-08-29 16:00:00 31.4 10 Oeste 22 Oeste 0 980.3 -1 29
2018-08-29 15:00:00 30.1 9 Oeste 24 Oeste 0 980.5 -1.4 34
2018-08-29 14:00:00 28.6 9 Noroeste 24 Noroeste 0 980.8 -0.8 38
2018-08-29 13:00:00 27.1 7 Noroeste 22 Noroeste 0 981.3 -0.1 42
2018-08-29 12:00:00 26.3 8 Sudeste 18 Este 0 981.9 1 48
2018-08-29 11:00:00 24.2 8 Norte 20 Norte 0 981.6 1.3 52
2018-08-29 10:00:00 20.8 5 Oeste 10 Oeste 0 981.4 1.4 67
2018-08-29 09:00:00 18.4 3 Oeste 17 Noroeste 0 980.9 1 76
2018-08-29 08:00:00 17.6 14 Noroeste 27 Norte 0 980.3 0.5 78
2018-08-29 07:00:00 16.8 6 Noroeste 20 Noroeste 0 980 0.4 81
2018-08-29 06:00:00 18.1 15 Noroeste 22 Noroeste 0 979.9 0.2 77
2018-08-29 05:00:00 18.5 11 Noroeste 18 Norte 0 979.8 0.3 76
2018-08-29 04:00:00 18.5 14 Noroeste 21 Noroeste 0 979.6 0.3 77
2018-08-29 03:00:00 18.6 4 Noroeste 15 Noroeste 0 979.7 0.3 76
2018-08-29 02:00:00 19.2 6 Oeste 12 Oeste 0 979.5 0.3 74
2018-08-29 01:00:00 20.1 4 Oeste 12 Oeste 0 979.3 0.7 69
2018-08-29 00:00:00 21.2 8 Oeste 21 Oeste 0 979.4 1.4 63
2018-08-28 23:00:00 22.9 9 Oeste 18 Oeste 0 979.2 1.7 55
2018-08-28 22:00:00 24.4 9 Oeste 22 Oeste 0 978.6 1.4 43
2018-08-28 21:00:00 27.2 16 Oeste 31 Sudoeste 0 978 0.6 35
2018-08-28 20:00:00 30.6 19 Oeste 39 Oeste 0 977.5 -0.3 27
2018-08-28 19:00:00 32.5 21 Oeste 33 Oeste 0 977.2 -1.1 25
2018-08-28 18:00:00 33.5 9 Sur 31 Sudoeste 0 977.4 -1.2 25
2018-08-28 17:00:00 33.4 9 Sudoeste 30 Sur 0 977.8 -1.2 26
2018-08-28 16:00:00 32.7 12 Sudoeste 30 Sudoeste 0 978.3 -1 28
2018-08-28 15:00:00 31.2 10 Oeste 26 Oeste 0 978.6 -0.8 33
2018-08-28 14:00:00 30.4 9 Sudoeste 29 Sur 0 979 -0.1 34
2018-08-28 13:00:00 29.2 6 Sudeste 19 Sudeste 0 979.3 0.5 44
2018-08-28 12:00:00 26.9 5 Sudoeste 20 Oeste 0 979.4 0.9 53
2018-08-28 11:00:00 25.2 7 Sudoeste 18 Oeste 0 979.1 1.1 59
2018-08-28 10:00:00 23.5 10 Oeste 15 Oeste 0 978.8 1.3 66
2018-08-28 09:00:00 22.5 5 Oeste 9 Oeste 0 978.5 1.5 72
2018-08-28 08:00:00 21.9 4 Oeste 14 Sur 0 978 1.2 72
2018-08-28 07:00:00 22.9 9 Sur 21 Sur 0 977.5 0.9 62
2018-08-28 06:00:00 23.5 8 Sur 14 Sudeste 0 977 0.6 50
2018-08-28 05:00:00 24.7 5 Sudeste 22 Sudeste 0 976.8 0.9 44
2018-08-28 04:00:00 26.1 3 Sur 33 Sur 0 976.6 1.3 39
2018-08-28 03:00:00 27.3 21 Sur 39 Sur 0 976.4 1 33
2018-08-28 02:00:00 27 15 Este 23 Este 0 975.9 0.6 26
2018-08-28 01:00:00 26.1 12 Este 21 Este 0 975.3 0.2 26
2018-08-28 00:00:00 26.1 6 Este 13 Este 0 975.4 0.3 27
2018-08-27 23:00:00 28.5 5 Sudeste 31 Nordeste 0 975.3 -0.3 24
2018-08-27 22:00:00 31.4 15 Norte 31 Norte 0 975.1 -0.6 17
2018-08-27 21:00:00 31.9 14 Norte 25 Norte 0 975.1 -0.7 18
2018-08-27 20:00:00 33.2 11 Norte 26 Noroeste 0 975.6 -0.8 17
2018-08-27 19:00:00 36 6 Norte 21 Norte 0 975.7 -2.4 13
2018-08-27 18:00:00 36.1 9 Norte 22 Norte 0 975.8 -2.3 12
2018-08-27 17:00:00 35.3 6 Norte 21 Nordeste 0 976.4 -1.6 13
2018-08-27 16:00:00 32.3 7 Este 18 Este 0 978.1 0.6 20
2018-08-27 15:00:00 32.1 9 Este 17 Este 0 978.1 -0.1 21
2018-08-27 14:00:00 31.6 8 Este 30 Este 0 978 -0.3 23
2018-08-27 13:00:00 31.4 17 Este 36 Este 0 977.5 -0.5 23
2018-08-27 12:00:00 30.8 17 Este 31 Este 0 978.2 1.1 20
2018-08-27 11:00:00 28.2 17 Este 28 Este 0 978.3 1.7 22
2018-08-27 10:00:00 24 7 Este 12 Este 0 978 1.7 33
2018-08-27 09:00:00 20.7 0 Calma 5 Noroeste 0 977.1 0.6 44
2018-08-27 08:00:00 18.2 4 Noroeste 9 Este 0 976.6 0 48
2018-08-27 07:00:00 20.2 8 Este 12 Este 0 976.3 -0.3 38
2018-08-27 06:00:00 19.2 4 Este 6 Este 0 976.5 -0.2 40
2018-08-27 05:00:00 20.4 2 Noroeste 11 Este 0 976.6 -0.2 41
2018-08-27 04:00:00 22.5 7 Este 13 Este 0 976.6 -0.5 32
2018-08-27 03:00:00 22.5 6 Este 13 Norte 0 976.7 -0.1 37
2018-08-27 02:00:00 27.5 11 Norte 24 Norte 0 976.8 0.2 26
2018-08-27 01:00:00 24.8 5 Norte 23 Sur 0 977.1 0.9 28
2018-08-27 00:00:00 26.9 3 Sudoeste 9 Nordeste 0 976.8 0.8 22
2018-08-26 23:00:00 28 5 Norte 10 Noroeste 0 976.6 0.7 19
2018-08-26 22:00:00 29.6 5 Este 8 Este 0 976.2 0.3 17
2018-08-26 21:00:00 32.6 2 Sudeste 13 Norte 0 976 0 14
2018-08-26 20:00:00 35.7 5 Noroeste 14 Norte 0 975.9 -0.5 11
2018-08-26 19:00:00 36 8 Norte 20 Norte 0 975.9 -1.1 11
2018-08-26 18:00:00 36 5 Noroeste 26 Norte 0 976 -1.6 12
2018-08-26 17:00:00 35.8 12 Noroeste 24 Noroeste 0 976.4 -1.7 12
2018-08-26 16:00:00 34.6 9 Oeste 19 Oeste 0 977 -1.5 13
2018-08-26 15:00:00 33.6 8 Oeste 18 Oeste 0 977.6 -1.2 14
2018-08-26 14:00:00 32.7 7 Este 29 Este 0 978.1 -0.5 19
2018-08-26 13:00:00 31 17 Este 29 Este 0 978.5 0 22
2018-08-26 12:00:00 28.4 16 Este 31 Este 0 978.8 0.6 27
2018-08-26 11:00:00 26.7 17 Este 29 Este 0 978.6 0.8 26
2018-08-26 10:00:00 24.5 10 Este 17 Este 0 978.5 1.4 30
2018-08-26 09:00:00 18.8 0 Calma 6 Sur 0 978.2 1.1 50
2018-08-26 08:00:00 18.2 4 Nordeste 10 Este 0 977.8 0.8 49
2018-08-26 07:00:00 19.2 0 Calma 6 Oeste 0 977.1 0 40
2018-08-26 06:00:00 19.9 3 Este 13 Nordeste 0 977.1 0.1 39
2018-08-26 05:00:00 23.6 8 Norte 19 Norte 0 977 0 29
2018-08-26 04:00:00 22.6 3 Norte 10 Norte 0 977.1 0 30
2018-08-26 03:00:00 24.6 5 Nordeste 24 Norte 0 977 -0.3 26
2018-08-26 02:00:00 25.6 11 Norte 24 Norte 0 977 0.1 24
2018-08-26 01:00:00 26.5 12 Norte 25 Norte 0 977.1 0.7 21
2018-08-26 00:00:00 27.1 10 Norte 27 Norte 0 977.3 1.3 21
2018-08-25 23:00:00 27.5 11 Norte 22 Norte 0 976.9 1.2 21
2018-08-25 22:00:00 28.2 11 Norte 20 Norte 0 976.4 0.6 20
2018-08-25 21:00:00 30.2 12 Noroeste 26 Noroeste 0 976 0 17
2018-08-25 20:00:00 32.9 14 Noroeste 29 Noroeste 0 975.7 -0.8 13
2018-08-25 19:00:00 33.9 14 Noroeste 30 Norte 0 975.8 -1.4 11
2018-08-25 18:00:00 33.8 15 Noroeste 29 Norte 0 976 -1.7 11
2018-08-25 17:00:00 33.9 12 Noroeste 26 Noroeste 0 976.5 -1.9 11
2018-08-25 16:00:00 33.5 11 Noroeste 26 Noroeste 0 977.2 -1.6 11
2018-08-25 15:00:00 33.1 8 Noroeste 28 Noroeste 0 977.7 -1.7 11
2018-08-25 14:00:00 31.6 11 Oeste 31 Oeste 0 978.4 -1.2 11
2018-08-25 13:00:00 31 8 Oeste 23 Oeste 0 978.8 -0.8 13
2018-08-25 12:00:00 29.3 6 Este 22 Sudeste 0 979.4 0 19
2018-08-25 11:00:00 26.7 4 Noroeste 11 Oeste 0 979.6 0.4 25
2018-08-25 10:00:00 23.8 4 Noroeste 12 Norte 0 979.6 0.6 31
2018-08-25 09:00:00 21.4 4 Norte 14 Norte 0 979.4 0.6 36
2018-08-25 08:00:00 19.4 3 Noroeste 8 Este 0 979.2 0.1 43
2018-08-25 07:00:00 19.6 5 Este 21 Norte 0 979 -0.1 45
2018-08-25 06:00:00 22.7 14 Norte 23 Norte 0 978.8 -0.6 35
2018-08-25 05:00:00 23.9 11 Norte 22 Norte 0 979.1 -0.6 31
2018-08-25 04:00:00 24.7 11 Norte 19 Norte 0 979.1 -0.5 28
2018-08-25 03:00:00 24.1 8 Norte 14 Norte 0 979.4 0 29
2018-08-25 02:00:00 23.9 4 Este 20 Norte 0 979.7 0.4 25
2018-08-25 01:00:00 25.8 9 Norte 26 Norte 0 979.6 0.7 21
2018-08-25 00:00:00 28 11 Norte 24 Norte 0 979.4 0.9 16
2018-08-24 23:00:00 29.6 10 Norte 24 Norte 0 979.3 0.7 13
2018-08-24 22:00:00 30.9 9 Norte 19 Norte 0 978.9 0.2 13
2018-08-24 21:00:00 32.2 8 Norte 27 Noroeste 0 978.5 -0.3 12
2018-08-24 20:00:00 35 14 Noroeste 32 Noroeste 0 978.6 -0.6 10
2018-08-24 19:00:00 36.1 14 Noroeste 31 Noroeste 0 978.7 -1.2 10
2018-08-24 18:00:00 36.3 17 Noroeste 34 Noroeste 0 978.8 -1.6 10
2018-08-24 17:00:00 36.9 12 Oeste 33 Oeste 0 979.2 -1.7 10
2018-08-24 16:00:00 36.6 15 Oeste 35 Oeste 0 979.9 -1.5 11
2018-08-24 15:00:00 35.6 15 Oeste 31 Oeste 0 980.4 -1.4 13
2018-08-24 14:00:00 34.9 4 Nordeste 19 Noroeste 0 980.9 -1 14
2018-08-24 13:00:00 33.3 9 Sudeste 15 Sur 0 981.4 -0.4 25
2018-08-24 12:00:00 30.3 5 Sudoeste 13 Sudoeste 0 981.8 0.5 32
2018-08-24 11:00:00 28.1 3 Sur 10 Sudeste 0 981.9 1.4 38
2018-08-24 10:00:00 26.1 2 Sur 8 Este 0 981.8 1.5 47
2018-08-24 09:00:00 23.3 2 Nordeste 5 Sudeste 0 981.3 1.3 49
2018-08-24 08:00:00 22 2 Noroeste 8 Nordeste 0 980.5 0.4 47
2018-08-24 07:00:00 22.1 7 Nordeste 18 Norte 0 980.3 0.1 49
2018-08-24 06:00:00 24.9 11 Norte 23 Norte 0 980 -0.7 39
2018-08-24 05:00:00 25.2 15 Norte 23 Norte 0 980.1 -0.9 39
2018-08-24 04:00:00 26.4 13 Norte 28 Nordeste 0 980.2 -0.5 34
2018-08-24 03:00:00 27 8 Norte 21 Nordeste 0 980.7 0.2 34
2018-08-24 02:00:00 25.1 3 Este 10 Este 0 981 0.6 40
2018-08-24 01:00:00 27.2 3 Este 25 Noroeste 0 980.7 1.1 34
2018-08-24 00:00:00 29 12 Norte 34 Norte 0 980.5 1.7 29
2018-08-23 23:00:00 29.2 12 Norte 19 Noroeste 0 980.4 1.8 29
2018-08-23 22:00:00 30.3 10 Noroeste 15 Noroeste 0 979.6 1.2 27
2018-08-23 21:00:00 32.3 8 Noroeste 22 Oeste 0 978.8 -0.1 23
2018-08-23 20:00:00 35.6 7 Oeste 18 Noroeste 0 978.6 -0.3 19
2018-08-23 19:00:00 36.5 9 Sudoeste 30 Oeste 0 978.4 -1.3 19
2018-08-23 18:00:00 36.1 10 Oeste 29 Noroeste 0 978.9 -1.3 18
2018-08-23 17:00:00 36.5 14 Oeste 31 Oeste 0 978.9 -1.9 18
2018-08-23 16:00:00 36.5 8 Oeste 24 Oeste 0 979.7 -1.5 19
2018-08-23 15:00:00 35.4 7 Sudoeste 17 Sudoeste 0 980.2 -1.1 22
2018-08-23 14:00:00 33.6 5 Sudoeste 13 Sudoeste 0 980.8 -0.3 20
2018-08-23 13:00:00 31.6 5 Sudoeste 10 Sudoeste 0 981.2 0.2 25
2018-08-23 12:00:00 29.1 4 Sudoeste 9 Sudoeste 0 981.3 0.4 34
2018-08-23 11:00:00 26.4 3 Sudoeste 8 Oeste 0 981.1 0.6 41
2018-08-23 10:00:00 24 6 Sudeste 11 Noroeste 0 981 0.9 52
2018-08-23 09:00:00 20.6 4 Noroeste 12 Norte 0 980.9 0.9 59
2018-08-23 08:00:00 19.6 3 Noroeste 5 Sudeste 0 980.5 0.5 62
2018-08-23 07:00:00 20.1 4 Este 7 Oeste 0 980.1 -0.1 59
2018-08-23 06:00:00 21 6 Sudeste 15 Este 0 980 -0.2 56
2018-08-23 05:00:00 21.6 8 Este 11 Este 0 980 -0.5 52
2018-08-23 04:00:00 21.9 4 Este 18 Nordeste 0 980.2 -0.3 57
2018-08-23 03:00:00 24.1 6 Nordeste 14 Nordeste 0 980.2 0 43
2018-08-23 02:00:00 24 3 Norte 12 Este 0 980.5 0.6 45
2018-08-23 01:00:00 24.3 10 Este 27 Norte 0 980.5 0.7 45
2018-08-23 00:00:00 26.9 14 Norte 30 Norte 0 980.2 1.1 32